sensor_id;sensor_type;location;lat;lon;timestamp;pressure;altitude;pressure_sealevel;temperature;humidity
84815;BME280;75050;53.190;5.562;2024-02-23T00:00:24;98308.34;;;10.00;84.11
84815;BME280;75050;53.190;5.562;2024-02-23T00:02:49;98320.38;;;10.01;84.10
84815;BME280;75050;53.190;5.562;2024-02-23T00:05:15;98320.38;;;10.01;84.11
84815;BME280;75050;53.190;5.562;2024-02-23T00:07:40;98365.56;;;10.00;84.02
84815;BME280;75050;53.190;5.562;2024-02-23T00:10:06;98345.16;;;9.96;83.87
84815;BME280;75050;53.190;5.562;2024-02-23T00:12:31;98375.72;;;9.94;83.65
84815;BME280;75050;53.190;5.562;2024-02-23T00:14:57;98351.28;;;9.78;83.72
84815;BME280;75050;53.190;5.562;2024-02-23T00:17:22;98372.03;;;9.87;83.82
84815;BME280;75050;53.190;5.562;2024-02-23T00:19:48;98368.47;;;9.88;83.54
84815;BME280;75050;53.190;5.562;2024-02-23T00:22:14;98369.88;;;9.83;83.43
84815;BME280;75050;53.190;5.562;2024-02-23T00:24:39;98367.94;;;9.85;83.45
84815;BME280;75050;53.190;5.562;2024-02-23T00:27:06;98379.31;;;9.84;83.51
84815;BME280;75050;53.190;5.562;2024-02-23T00:29:31;98380.25;;;9.83;83.46
84815;BME280;75050;53.190;5.562;2024-02-23T00:31:56;98395.88;;;9.83;83.34
84815;BME280;75050;53.190;5.562;2024-02-23T00:34:22;98402.03;;;9.82;83.47
84815;BME280;75050;53.190;5.562;2024-02-23T00:36:47;98383.19;;;9.70;83.39
84815;BME280;75050;53.190;5.562;2024-02-23T00:39:13;98409.97;;;9.80;83.33
84815;BME280;75050;53.190;5.562;2024-02-23T00:41:39;98405.72;;;9.79;83.24
84815;BME280;75050;53.190;5.562;2024-02-23T00:44:04;98423.13;;;9.79;83.42
84815;BME280;75050;53.190;5.562;2024-02-23T00:46:30;98410.25;;;9.77;83.65
84815;BME280;75050;53.190;5.562;2024-02-23T00:48:55;98418.06;;;9.77;83.29
84815;BME280;75050;53.190;5.562;2024-02-23T00:51:21;98422.44;;;9.77;83.23
84815;BME280;75050;53.190;5.562;2024-02-23T00:53:46;98436.56;;;9.74;83.23
84815;BME280;75050;53.190;5.562;2024-02-23T00:56:12;98428.81;;;9.65;83.36
84815;BME280;75050;53.190;5.562;2024-02-23T00:58:38;98440.91;;;9.74;83.35
84815;BME280;75050;53.190;5.562;2024-02-23T01:01:04;98433.69;;;9.68;83.14
84815;BME280;75050;53.190;5.562;2024-02-23T01:03:29;98457.63;;;9.71;83.21
84815;BME280;75050;53.190;5.562;2024-02-23T01:05:54;98461.19;;;9.70;83.15
84815;BME280;75050;53.190;5.562;2024-02-23T01:08:20;98464.75;;;9.69;83.05
84815;BME280;75050;53.190;5.562;2024-02-23T01:10:45;98468.16;;;9.70;83.12
84815;BME280;75050;53.190;5.562;2024-02-23T01:13:10;98475.59;;;9.65;83.11
84815;BME280;75050;53.190;5.562;2024-02-23T01:15:36;98483.09;;;9.68;82.96
84815;BME280;75050;53.190;5.562;2024-02-23T01:18:01;98475.19;;;9.60;83.05
84815;BME280;75050;53.190;5.562;2024-02-23T01:20:27;98485.16;;;9.64;83.11
84815;BME280;75050;53.190;5.562;2024-02-23T01:22:52;98479.84;;;9.56;82.69
84815;BME280;75050;53.190;5.562;2024-02-23T01:25:17;98505.13;;;9.64;82.95
84815;BME280;75050;53.190;5.562;2024-02-23T01:27:43;98504.31;;;9.63;82.92
84815;BME280;75050;53.190;5.562;2024-02-23T01:30:11;98506.25;;;9.61;82.90
84815;BME280;75050;53.190;5.562;2024-02-23T01:32:37;98515.00;;;9.60;82.85
84815;BME280;75050;53.190;5.562;2024-02-23T01:35:05;98518.56;;;9.59;82.71
84815;BME280;75050;53.190;5.562;2024-02-23T01:37:31;98512.53;;;9.59;82.67
84815;BME280;75050;53.190;5.562;2024-02-23T01:39:56;98513.75;;;9.55;83.13
84815;BME280;75050;53.190;5.562;2024-02-23T01:42:21;98497.94;;;9.39;82.64
84815;BME280;75050;53.190;5.562;2024-02-23T01:44:49;98536.22;;;9.56;82.73
84815;BME280;75050;53.190;5.562;2024-02-23T01:47:15;98539.75;;;9.55;82.62
84815;BME280;75050;53.190;5.562;2024-02-23T01:49:41;98555.47;;;9.54;83.02
84815;BME280;75050;53.190;5.562;2024-02-23T01:52:06;98569.47;;;9.53;82.60
84815;BME280;75050;53.190;5.562;2024-02-23T01:54:32;98558.25;;;9.52;82.68
84815;BME280;75050;53.190;5.562;2024-02-23T01:56:59;98543.47;;;9.43;82.56
84815;BME280;75050;53.190;5.562;2024-02-23T01:59:26;98546.22;;;9.42;82.50
84815;BME280;75050;53.190;5.562;2024-02-23T02:01:52;98556.84;;;9.48;82.55
84815;BME280;75050;53.190;5.562;2024-02-23T02:04:17;98561.81;;;9.42;82.50
84815;BME280;75050;53.190;5.562;2024-02-23T02:06:45;98583.53;;;9.41;82.28
84815;BME280;75050;53.190;5.562;2024-02-23T02:09:11;98575.34;;;9.45;82.34
84815;BME280;75050;53.190;5.562;2024-02-23T02:11:45;98564.53;;;9.31;82.17
84815;BME280;75050;53.190;5.562;2024-02-23T02:14:10;98586.13;;;9.41;82.44
84815;BME280;75050;53.190;5.562;2024-02-23T02:16:36;98586.81;;;9.43;82.23
84815;BME280;75050;53.190;5.562;2024-02-23T02:19:01;98586.97;;;9.41;82.17
84815;BME280;75050;53.190;5.562;2024-02-23T02:21:26;98590.50;;;9.40;82.11
84815;BME280;75050;53.190;5.562;2024-02-23T02:23:53;98586.41;;;9.38;82.01
84815;BME280;75050;53.190;5.562;2024-02-23T02:26:18;98596.25;;;9.34;82.13
84815;BME280;75050;53.190;5.562;2024-02-23T02:28:44;98597.63;;;9.38;82.00
84815;BME280;75050;53.190;5.562;2024-02-23T02:31:10;98585.06;;;9.34;82.14
84815;BME280;75050;53.190;5.562;2024-02-23T02:33:35;98583.66;;;9.30;82.10
84815;BME280;75050;53.190;5.562;2024-02-23T02:36:00;98600.66;;;9.34;82.23
84815;BME280;75050;53.190;5.562;2024-02-23T02:38:26;98612.78;;;9.33;82.04
84815;BME280;75050;53.190;5.562;2024-02-23T02:40:51;98620.03;;;9.30;81.91
84815;BME280;75050;53.190;5.562;2024-02-23T02:43:16;98622.38;;;9.33;82.08
84815;BME280;75050;53.190;5.562;2024-02-23T02:45:42;98626.75;;;9.32;82.01
84815;BME280;75050;53.190;5.562;2024-02-23T02:48:07;98633.75;;;9.32;82.02
84815;BME280;75050;53.190;5.562;2024-02-23T02:50:33;98629.50;;;9.31;81.86
84815;BME280;75050;53.190;5.562;2024-02-23T02:52:58;98622.63;;;9.30;81.83
84815;BME280;75050;53.190;5.562;2024-02-23T02:55:23;98619.22;;;9.29;81.92
84815;BME280;75050;53.190;5.562;2024-02-23T02:57:49;98647.81;;;9.29;81.87
84815;BME280;75050;53.190;5.562;2024-02-23T03:00:14;98632.34;;;9.28;81.87
84815;BME280;75050;53.190;5.562;2024-02-23T03:02:40;98654.78;;;9.19;81.82
84815;BME280;75050;53.190;5.562;2024-02-23T03:05:05;98632.06;;;9.21;81.70
84815;BME280;75050;53.190;5.562;2024-02-23T03:07:31;98648.34;;;9.23;81.77
84815;BME280;75050;53.190;5.562;2024-02-23T03:09:56;98654.47;;;9.22;81.59
84815;BME280;75050;53.190;5.562;2024-02-23T03:12:22;98652.03;;;9.21;81.56
84815;BME280;75050;53.190;5.562;2024-02-23T03:14:47;98658.06;;;9.21;81.63
84815;BME280;75050;53.190;5.562;2024-02-23T03:17:13;98669.25;;;9.22;82.21
84815;BME280;75050;53.190;5.562;2024-02-23T03:19:38;98668.44;;;9.21;81.74
84815;BME280;75050;53.190;5.562;2024-02-23T03:22:04;98660.91;;;9.18;81.66
84815;BME280;75050;53.190;5.562;2024-02-23T03:24:29;98678.84;;;9.21;81.77
84815;BME280;75050;53.190;5.562;2024-02-23T03:26:55;98687.56;;;9.20;81.61
84815;BME280;75050;53.190;5.562;2024-02-23T03:29:21;98678.16;;;9.19;81.79
84815;BME280;75050;53.190;5.562;2024-02-23T03:31:50;98683.34;;;9.19;81.66
84815;BME280;75050;53.190;5.562;2024-02-23T03:34:16;98682.66;;;9.18;81.52
84815;BME280;75050;53.190;5.562;2024-02-23T03:36:42;98681.00;;;9.17;81.45
84815;BME280;75050;53.190;5.562;2024-02-23T03:39:07;98696.59;;;9.17;81.83
84815;BME280;75050;53.190;5.562;2024-02-23T03:41:33;98687.16;;;9.16;81.57
84815;BME280;75050;53.190;5.562;2024-02-23T03:43:58;98687.16;;;9.16;81.54
84815;BME280;75050;53.190;5.562;2024-02-23T03:46:24;98692.63;;;9.13;81.63
84815;BME280;75050;53.190;5.562;2024-02-23T03:48:49;98704.91;;;9.11;81.52
84815;BME280;75050;53.190;5.562;2024-02-23T03:51:15;98691.50;;;9.06;81.61
84815;BME280;75050;53.190;5.562;2024-02-23T03:53:41;98709.84;;;9.14;81.93
84815;BME280;75050;53.190;5.562;2024-02-23T03:56:07;98716.25;;;9.10;81.65
84815;BME280;75050;53.190;5.562;2024-02-23T03:58:32;98717.78;;;9.12;81.59
84815;BME280;75050;53.190;5.562;2024-02-23T04:00:57;98711.78;;;9.12;81.70
84815;BME280;75050;53.190;5.562;2024-02-23T04:03:23;98718.72;;;9.11;81.68
84815;BME280;75050;53.190;5.562;2024-02-23T04:05:48;98728.28;;;9.11;82.09
84815;BME280;75050;53.190;5.562;2024-02-23T04:08:13;98733.50;;;9.11;81.67
84815;BME280;75050;53.190;5.562;2024-02-23T04:10:39;98731.81;;;9.10;81.93
84815;BME280;75050;53.190;5.562;2024-02-23T04:13:04;98750.97;;;9.09;81.49
84815;BME280;75050;53.190;5.562;2024-02-23T04:15:29;98719.47;;;8.93;81.51
84815;BME280;75050;53.190;5.562;2024-02-23T04:17:55;98742.38;;;9.08;81.59
84815;BME280;75050;53.190;5.562;2024-02-23T04:20:20;98745.09;;;9.07;81.47
84815;BME280;75050;53.190;5.562;2024-02-23T04:22:45;98748.63;;;9.06;81.68
84815;BME280;75050;53.190;5.562;2024-02-23T04:25:11;98761.63;;;9.06;81.50
84815;BME280;75050;53.190;5.562;2024-02-23T04:27:36;98762.59;;;9.05;81.61
84815;BME280;75050;53.190;5.562;2024-02-23T04:30:02;98760.00;;;9.05;81.66
84815;BME280;75050;53.190;5.562;2024-02-23T04:32:28;98764.34;;;9.04;81.57
84815;BME280;75050;53.190;5.562;2024-02-23T04:34:53;98769.53;;;9.04;81.54
84815;BME280;75050;53.190;5.562;2024-02-23T04:37:19;98766.13;;;9.04;81.56
84815;BME280;75050;53.190;5.562;2024-02-23T04:39:44;98769.69;;;9.03;81.57
84815;BME280;75050;53.190;5.562;2024-02-23T04:42:09;98776.50;;;9.04;81.55
84815;BME280;75050;53.190;5.562;2024-02-23T04:44:35;98779.22;;;9.02;81.59
84815;BME280;75050;53.190;5.562;2024-02-23T04:47:01;98781.00;;;9.02;81.66
84815;BME280;75050;53.190;5.562;2024-02-23T04:49:26;98781.97;;;9.01;81.57
84815;BME280;75050;53.190;5.562;2024-02-23T04:51:52;98766.47;;;8.90;81.49
84815;BME280;75050;53.190;5.562;2024-02-23T04:54:18;98777.97;;;8.97;81.98
84815;BME280;75050;53.190;5.562;2024-02-23T04:56:43;98798.38;;;9.01;81.64
84815;BME280;75050;53.190;5.562;2024-02-23T04:59:08;98789.78;;;9.01;82.04
84815;BME280;75050;53.190;5.562;2024-02-23T05:01:37;98792.50;;;8.99;81.93
84815;BME280;75050;53.190;5.562;2024-02-23T05:04:03;98786.50;;;8.99;81.58
84815;BME280;75050;53.190;5.562;2024-02-23T05:06:29;98789.09;;;8.99;81.47
84815;BME280;75050;53.190;5.562;2024-02-23T05:08:54;98785.53;;;9.00;81.59
84815;BME280;75050;53.190;5.562;2024-02-23T05:11:20;98792.88;;;8.95;81.52
84815;BME280;75050;53.190;5.562;2024-02-23T05:13:45;98811.63;;;8.98;81.80
84815;BME280;75050;53.190;5.562;2024-02-23T05:16:10;98798.75;;;8.97;81.61
84815;BME280;75050;53.190;5.562;2024-02-23T05:18:38;98810.09;;;8.96;81.70
84815;BME280;75050;53.190;5.562;2024-02-23T05:21:03;98814.34;;;8.97;81.57
84815;BME280;75050;53.190;5.562;2024-02-23T05:23:29;98805.84;;;8.95;81.69
84815;BME280;75050;53.190;5.562;2024-02-23T05:25:54;98805.16;;;8.93;81.77
84815;BME280;75050;53.190;5.562;2024-02-23T05:28:20;98810.22;;;8.94;81.63
84815;BME280;75050;53.190;5.562;2024-02-23T05:30:45;98811.19;;;8.93;81.74
84815;BME280;75050;53.190;5.562;2024-02-23T05:33:10;98815.53;;;8.93;81.84
84815;BME280;75050;53.190;5.562;2024-02-23T05:35:36;98818.13;;;8.93;81.75
84815;BME280;75050;53.190;5.562;2024-02-23T05:38:02;98817.31;;;8.92;81.72
84815;BME280;75050;53.190;5.562;2024-02-23T05:40:27;98825.13;;;8.92;81.69
84815;BME280;75050;53.190;5.562;2024-02-23T05:42:52;98820.75;;;8.93;81.76
84815;BME280;75050;53.190;5.562;2024-02-23T05:45:18;98826.91;;;8.92;81.83
84815;BME280;75050;53.190;5.562;2024-02-23T05:47:43;98826.09;;;8.91;81.78
84815;BME280;75050;53.190;5.562;2024-02-23T05:50:09;98817.31;;;8.92;81.83
84815;BME280;75050;53.190;5.562;2024-02-23T05:52:34;98829.63;;;8.90;81.75
84815;BME280;75050;53.190;5.562;2024-02-23T05:55:01;98795.34;;;8.76;81.93
84815;BME280;75050;53.190;5.562;2024-02-23T05:57:27;98819.63;;;8.86;81.86
84815;BME280;75050;53.190;5.562;2024-02-23T05:59:53;98822.63;;;8.91;81.86
84815;BME280;75050;53.190;5.562;2024-02-23T06:02:18;98833.03;;;8.91;81.80
84815;BME280;75050;53.190;5.562;2024-02-23T06:04:44;98821.50;;;8.84;81.93
84815;BME280;75050;53.190;5.562;2024-02-23T06:07:10;98832.47;;;8.87;81.92
84815;BME280;75050;53.190;5.562;2024-02-23T06:09:35;98828.81;;;8.90;82.11
84815;BME280;75050;53.190;5.562;2024-02-23T06:12:01;98833.16;;;8.89;82.00
84815;BME280;75050;53.190;5.562;2024-02-23T06:14:26;98823.97;;;8.85;82.06
84815;BME280;75050;53.190;5.562;2024-02-23T06:16:51;98830.00;;;8.86;82.05
84815;BME280;75050;53.190;5.562;2024-02-23T06:19:17;98826.84;;;8.82;81.80
84815;BME280;75050;53.190;5.562;2024-02-23T06:21:42;98841.09;;;8.88;82.26
84815;BME280;75050;53.190;5.562;2024-02-23T06:24:08;98838.50;;;8.88;82.00
84815;BME280;75050;53.190;5.562;2024-02-23T06:26:34;98845.44;;;8.87;82.23
84815;BME280;75050;53.190;5.562;2024-02-23T06:29:00;98839.44;;;8.87;82.09
84815;BME280;75050;53.190;5.562;2024-02-23T06:31:25;98851.47;;;8.88;82.35
84815;BME280;75050;53.190;5.562;2024-02-23T06:33:51;98846.91;;;8.80;82.12
84815;BME280;75050;53.190;5.562;2024-02-23T06:36:17;98843.81;;;8.86;82.15
84815;BME280;75050;53.190;5.562;2024-02-23T06:38:46;98850.78;;;8.86;82.27
84815;BME280;75050;53.190;5.562;2024-02-23T06:41:12;98851.16;;;8.81;82.10
84815;BME280;75050;53.190;5.562;2024-02-23T06:43:37;98849.13;;;8.85;82.29
84815;BME280;75050;53.190;5.562;2024-02-23T06:46:09;98857.03;;;8.83;82.36
84815;BME280;75050;53.190;5.562;2024-02-23T06:48:36;98835.00;;;8.78;82.32
84815;BME280;75050;53.190;5.562;2024-02-23T06:51:02;98850.91;;;8.84;82.22
84815;BME280;75050;53.190;5.562;2024-02-23T06:53:28;98841.44;;;8.83;82.39
84815;BME280;75050;53.190;5.562;2024-02-23T06:55:54;98847.47;;;8.84;82.35
84815;BME280;75050;53.190;5.562;2024-02-23T06:58:19;98852.66;;;8.84;82.23
84815;BME280;75050;53.190;5.562;2024-02-23T07:00:45;98858.00;;;8.82;82.38
84815;BME280;75050;53.190;5.562;2024-02-23T07:03:11;98857.84;;;8.84;82.36
84815;BME280;75050;53.190;5.562;2024-02-23T07:05:36;98850.56;;;8.78;82.35
84815;BME280;75050;53.190;5.562;2024-02-23T07:08:02;98865.78;;;8.82;82.32
84815;BME280;75050;53.190;5.562;2024-02-23T07:10:27;98861.41;;;8.83;82.27
84815;BME280;75050;53.190;5.562;2024-02-23T07:12:53;98860.59;;;8.82;82.43
84815;BME280;75050;53.190;5.562;2024-02-23T07:15:21;98855.06;;;8.76;82.41
84815;BME280;75050;53.190;5.562;2024-02-23T07:17:47;98854.72;;;8.80;82.37
84815;BME280;75050;53.190;5.562;2024-02-23T07:20:13;98867.53;;;8.82;82.58
84815;BME280;75050;53.190;5.562;2024-02-23T07:22:38;98866.59;;;8.83;82.52
84815;BME280;75050;53.190;5.562;2024-02-23T07:25:05;98870.00;;;8.83;82.28
84815;BME280;75050;53.190;5.562;2024-02-23T07:27:30;98873.44;;;8.84;82.64
84815;BME280;75050;53.190;5.562;2024-02-23T07:29:56;98879.34;;;8.86;82.67
84815;BME280;75050;53.190;5.562;2024-02-23T07:32:22;98880.16;;;8.86;82.50
84815;BME280;75050;53.190;5.562;2024-02-23T07:34:47;98884.66;;;8.84;82.66
84815;BME280;75050;53.190;5.562;2024-02-23T07:37:13;98886.88;;;8.89;82.67
84815;BME280;75050;53.190;5.562;2024-02-23T07:39:38;98877.16;;;8.91;82.33
84815;BME280;75050;53.190;5.562;2024-02-23T07:42:04;98876.34;;;8.90;82.65
84815;BME280;75050;53.190;5.562;2024-02-23T07:44:31;98853.63;;;8.83;82.57
84815;BME280;75050;53.190;5.562;2024-02-23T07:46:56;98875.53;;;8.90;82.56
84815;BME280;75050;53.190;5.562;2024-02-23T07:49:23;98853.50;;;8.84;82.76
84815;BME280;75050;53.190;5.562;2024-02-23T07:51:49;98859.13;;;8.89;82.78
84815;BME280;75050;53.190;5.562;2024-02-23T07:54:14;98870.22;;;8.91;82.68
84815;BME280;75050;53.190;5.562;2024-02-23T07:56:39;98849.56;;;8.90;82.80
84815;BME280;75050;53.190;5.562;2024-02-23T07:59:05;98853.69;;;8.92;82.69
84815;BME280;75050;53.190;5.562;2024-02-23T08:01:30;98867.47;;;8.93;82.93
84815;BME280;75050;53.190;5.562;2024-02-23T08:03:56;98852.59;;;8.95;82.78
84815;BME280;75050;53.190;5.562;2024-02-23T08:06:22;98851.66;;;8.96;82.91
84815;BME280;75050;53.190;5.562;2024-02-23T08:08:47;98854.13;;;8.97;82.93
84815;BME280;75050;53.190;5.562;2024-02-23T08:11:12;98841.38;;;8.94;82.66
84815;BME280;75050;53.190;5.562;2024-02-23T08:13:39;98853.16;;;8.98;82.85
84815;BME280;75050;53.190;5.562;2024-02-23T08:16:04;98859.22;;;8.99;82.95
84815;BME280;75050;53.190;5.562;2024-02-23T08:18:31;98850.56;;;8.98;82.84
84815;BME280;75050;53.190;5.562;2024-02-23T08:20:56;98845.88;;;8.92;82.99
84815;BME280;75050;53.190;5.562;2024-02-23T08:23:23;98846.34;;;8.97;82.96
84815;BME280;75050;53.190;5.562;2024-02-23T08:25:48;98855.88;;;8.97;83.11
84815;BME280;75050;53.190;5.562;2024-02-23T08:28:14;98845.50;;;8.97;82.88
84815;BME280;75050;53.190;5.562;2024-02-23T08:30:39;98859.44;;;8.96;82.82
84815;BME280;75050;53.190;5.562;2024-02-23T08:33:04;98867.34;;;8.94;82.93
84815;BME280;75050;53.190;5.562;2024-02-23T08:35:30;98847.41;;;8.95;82.64
84815;BME280;75050;53.190;5.562;2024-02-23T08:37:56;98847.09;;;8.88;82.96
84815;BME280;75050;53.190;5.562;2024-02-23T08:40:21;98850.00;;;8.95;82.97
84815;BME280;75050;53.190;5.562;2024-02-23T08:42:47;98856.16;;;8.94;82.90
84815;BME280;75050;53.190;5.562;2024-02-23T08:45:12;98853.56;;;8.94;82.92
84815;BME280;75050;53.190;5.562;2024-02-23T08:47:38;98856.16;;;8.94;83.04
84815;BME280;75050;53.190;5.562;2024-02-23T08:50:05;98843.34;;;8.81;83.05
84815;BME280;75050;53.190;5.562;2024-02-23T08:52:30;98865.72;;;8.93;83.02
84815;BME280;75050;53.190;5.562;2024-02-23T08:54:56;98862.28;;;8.93;82.99
84815;BME280;75050;53.190;5.562;2024-02-23T08:57:21;98870.91;;;8.93;83.04
84815;BME280;75050;53.190;5.562;2024-02-23T08:59:49;98868.31;;;8.93;82.96
84815;BME280;75050;53.190;5.562;2024-02-23T09:02:14;98862.28;;;8.93;83.01
84815;BME280;75050;53.190;5.562;2024-02-23T09:04:40;98870.06;;;8.93;83.03
84815;BME280;75050;53.190;5.562;2024-02-23T09:07:06;98870.91;;;8.93;83.15
84815;BME280;75050;53.190;5.562;2024-02-23T09:09:31;98870.06;;;8.93;83.01
84815;BME280;75050;53.190;5.562;2024-02-23T09:11:57;98866.66;;;8.92;83.05
84815;BME280;75050;53.190;5.562;2024-02-23T09:14:22;98883.06;;;8.93;83.00
84815;BME280;75050;53.190;5.562;2024-02-23T09:16:47;98865.28;;;8.88;83.13
84815;BME280;75050;53.190;5.562;2024-02-23T09:19:16;98873.63;;;8.92;82.99
84815;BME280;75050;53.190;5.562;2024-02-23T09:21:41;98878.84;;;8.92;83.01
84815;BME280;75050;53.190;5.562;2024-02-23T09:24:07;98869.78;;;8.86;83.08
84815;BME280;75050;53.190;5.562;2024-02-23T09:26:32;98850.06;;;8.84;83.22
84815;BME280;75050;53.190;5.562;2024-02-23T09:28:57;98870.22;;;8.91;83.22
84815;BME280;75050;53.190;5.562;2024-02-23T09:31:23;98867.63;;;8.91;83.08
84815;BME280;75050;53.190;5.562;2024-02-23T09:33:48;98871.97;;;8.91;83.22
84815;BME280;75050;53.190;5.562;2024-02-23T09:36:17;98866.78;;;8.91;83.13
84815;BME280;75050;53.190;5.562;2024-02-23T09:38:43;98882.38;;;8.91;83.22
84815;BME280;75050;53.190;5.562;2024-02-23T09:41:17;98890.44;;;8.88;83.13
84815;BME280;75050;53.190;5.562;2024-02-23T09:43:44;98880.41;;;8.83;83.10
84815;BME280;75050;53.190;5.562;2024-02-23T09:46:11;98892.75;;;8.91;83.26
84815;BME280;75050;53.190;5.562;2024-02-23T09:48:38;98893.84;;;8.88;82.86
84815;BME280;75050;53.190;5.562;2024-02-23T09:51:04;98883.81;;;8.84;83.33
84815;BME280;75050;53.190;5.562;2024-02-23T09:53:31;98898.91;;;8.90;83.30
84815;BME280;75050;53.190;5.562;2024-02-23T09:55:57;98871.09;;;8.81;83.30
84815;BME280;75050;53.190;5.562;2024-02-23T09:58:25;98875.09;;;8.85;83.09
84815;BME280;75050;53.190;5.562;2024-02-23T10:00:52;98878.25;;;8.88;83.18
84815;BME280;75050;53.190;5.562;2024-02-23T10:03:18;98875.31;;;8.82;83.29
84815;BME280;75050;53.190;5.562;2024-02-23T10:05:44;98880.84;;;8.88;83.50
84815;BME280;75050;53.190;5.562;2024-02-23T10:08:11;98888.66;;;8.88;83.17
84815;BME280;75050;53.190;5.562;2024-02-23T10:10:37;98876.88;;;8.84;83.39
84815;BME280;75050;53.190;5.562;2024-02-23T10:13:02;98886.03;;;8.88;83.27
84815;BME280;75050;53.190;5.562;2024-02-23T10:15:30;98889.47;;;8.89;83.36
84815;BME280;75050;53.190;5.562;2024-02-23T10:17:58;98891.25;;;8.88;83.26
84815;BME280;75050;53.190;5.562;2024-02-23T10:20:24;98892.06;;;8.89;83.44
84815;BME280;75050;53.190;5.562;2024-02-23T10:22:49;98893.84;;;8.88;83.26
84815;BME280;75050;53.190;5.562;2024-02-23T10:25:15;98893.84;;;8.88;83.20
84815;BME280;75050;53.190;5.562;2024-02-23T10:27:41;98890.44;;;8.88;83.34
84815;BME280;75050;53.190;5.562;2024-02-23T10:30:08;98889.72;;;8.86;83.26
84815;BME280;75050;53.190;5.562;2024-02-23T10:32:38;98888.31;;;8.82;83.44
84815;BME280;75050;53.190;5.562;2024-02-23T10:35:09;98876.53;;;8.78;83.24
84815;BME280;75050;53.190;5.562;2024-02-23T10:37:35;98892.19;;;8.87;83.42
84815;BME280;75050;53.190;5.562;2024-02-23T10:40:01;98898.34;;;8.86;83.48
84815;BME280;75050;53.190;5.562;2024-02-23T10:42:31;98891.47;;;8.85;83.42
84815;BME280;75050;53.190;5.562;2024-02-23T10:44:58;98883.69;;;8.85;83.36
84815;BME280;75050;53.190;5.562;2024-02-23T10:47:26;98886.91;;;8.78;83.37
84815;BME280;75050;53.190;5.562;2024-02-23T10:49:52;98896.78;;;8.84;83.57
84815;BME280;75050;53.190;5.562;2024-02-23T10:52:18;98876.88;;;8.84;83.40
84815;BME280;75050;53.190;5.562;2024-02-23T10:54:46;98886.88;;;8.89;83.61
84815;BME280;75050;53.190;5.562;2024-02-23T10:57:13;98887.69;;;8.89;83.53
84815;BME280;75050;53.190;5.562;2024-02-23T10:59:39;98875.91;;;8.85;83.61
84815;BME280;75050;53.190;5.562;2024-02-23T11:02:05;98880.72;;;8.90;83.57
84815;BME280;75050;53.190;5.562;2024-02-23T11:04:31;98885.81;;;8.91;83.59
84815;BME280;75050;53.190;5.562;2024-02-23T11:06:58;98891.81;;;8.92;83.51
84815;BME280;75050;53.190;5.562;2024-02-23T11:09:31;98873.31;;;8.85;83.47
84815;BME280;75050;53.190;5.562;2024-02-23T11:11:57;98903.00;;;8.92;83.59
84815;BME280;75050;53.190;5.562;2024-02-23T11:14:34;98898.63;;;8.93;83.41
84815;BME280;75050;53.190;5.562;2024-02-23T11:17:00;98896.03;;;8.93;83.61
84815;BME280;75050;53.190;5.562;2024-02-23T11:19:37;98892.63;;;8.92;83.63
84815;BME280;75050;53.190;5.562;2024-02-23T11:22:03;98896.03;;;8.93;83.77
84815;BME280;75050;53.190;5.562;2024-02-23T11:24:29;98891.00;;;8.91;83.74
84815;BME280;75050;53.190;5.562;2024-02-23T11:26:59;98889.56;;;8.87;83.75
84815;BME280;75050;53.190;5.562;2024-02-23T11:29:26;98891.94;;;8.90;83.57
84815;BME280;75050;53.190;5.562;2024-02-23T11:31:54;98883.06;;;8.93;83.75
84815;BME280;75050;53.190;5.562;2024-02-23T11:34:26;98877.56;;;8.86;83.77
84815;BME280;75050;53.190;5.562;2024-02-23T11:36:52;98885.66;;;8.93;83.76
84815;BME280;75050;53.190;5.562;2024-02-23T11:39:22;98910.69;;;8.94;83.70
84815;BME280;75050;53.190;5.562;2024-02-23T11:41:48;98895.91;;;8.94;83.74
84815;BME280;75050;53.190;5.562;2024-02-23T11:44:15;98894.28;;;8.93;83.81
84815;BME280;75050;53.190;5.562;2024-02-23T11:46:42;98911.50;;;8.94;83.83
84815;BME280;75050;53.190;5.562;2024-02-23T11:49:08;98912.00;;;8.88;83.77
84815;BME280;75050;53.190;5.562;2024-02-23T11:51:33;98903.41;;;8.88;83.77
84815;BME280;75050;53.190;5.562;2024-02-23T11:53:59;98925.56;;;8.92;83.84
84815;BME280;75050;53.190;5.562;2024-02-23T11:56:26;98932.53;;;8.91;83.99
84815;BME280;75050;53.190;5.562;2024-02-23T11:58:51;98934.88;;;8.94;83.83
84815;BME280;75050;53.190;5.562;2024-02-23T12:01:16;98921.06;;;8.94;83.86
84815;BME280;75050;53.190;5.562;2024-02-23T12:03:42;98929.69;;;8.94;83.94
84815;BME280;75050;53.190;5.562;2024-02-23T12:06:10;98923.69;;;8.94;83.71
84815;BME280;75050;53.190;5.562;2024-02-23T12:08:35;98938.44;;;8.93;83.92
84815;BME280;75050;53.190;5.562;2024-02-23T12:11:07;98926.16;;;8.95;83.90
84815;BME280;75050;53.190;5.562;2024-02-23T12:13:34;98938.28;;;8.95;84.02
84815;BME280;75050;53.190;5.562;2024-02-23T12:16:00;98935.69;;;8.95;83.91
84815;BME280;75050;53.190;5.562;2024-02-23T12:18:26;98923.69;;;8.94;84.23
84815;BME280;75050;53.190;5.562;2024-02-23T12:20:52;98932.97;;;8.96;83.97
84815;BME280;75050;53.190;5.562;2024-02-23T12:23:17;98922.16;;;8.91;84.06
84815;BME280;75050;53.190;5.562;2024-02-23T12:25:56;98932.53;;;8.91;83.97
84815;BME280;75050;53.190;5.562;2024-02-23T12:28:22;98932.03;;;8.97;84.07
84815;BME280;75050;53.190;5.562;2024-02-23T12:31:01;98937.13;;;8.99;84.05
84815;BME280;75050;53.190;5.562;2024-02-23T12:33:35;98911.91;;;8.90;84.05
84815;BME280;75050;53.190;5.562;2024-02-23T12:36:02;98923.91;;;8.91;84.13
84815;BME280;75050;53.190;5.562;2024-02-23T12:38:28;98915.69;;;8.86;84.16
84815;BME280;75050;53.190;5.562;2024-02-23T12:40:53;98942.31;;;8.99;84.23
84815;BME280;75050;53.190;5.562;2024-02-23T12:43:19;98938.75;;;9.00;84.34
84815;BME280;75050;53.190;5.562;2024-02-23T12:45:50;98945.59;;;9.01;84.29
84815;BME280;75050;53.190;5.562;2024-02-23T12:48:16;98948.19;;;9.01;84.17
84815;BME280;75050;53.190;5.562;2024-02-23T12:50:42;98943.69;;;9.03;84.21
84815;BME280;75050;53.190;5.562;2024-02-23T12:53:30;98946.66;;;8.98;84.36
84815;BME280;75050;53.190;5.562;2024-02-23T12:56:02;98958.72;;;8.99;84.25
84815;BME280;75050;53.190;5.562;2024-02-23T12:58:28;98957.63;;;9.02;84.13
84815;BME280;75050;53.190;5.562;2024-02-23T13:00:54;98959.53;;;9.00;84.61
84815;BME280;75050;53.190;5.562;2024-02-23T13:03:19;98970.38;;;9.05;84.38